Time;durP1;ratioP1;P1;durP2;ratioP2;P2;SDS_P1;SDS_P2;PMS_P1;PMS_P2;Temp;Humidity;BMP_temperature;BMP_pressure;BME280_temperature;BME280_humidity;BME280_pressure;Samples;Min_cycle;Max_cycle;Signal;HPM_P1;HPM_P2
2022/01/19 00:01:51;;;;;;;10.88;3.83;;;;;;;-2.03;56.80;147170.97;1776529;80;21076;-58
2022/01/19 00:04:18;;;;;;;6.70;2.20;;;;;;;-2.04;56.38;147168.39;1757926;80;21446;-63
2022/01/19 00:06:44;;;;;;;7.62;1.10;;;;;;;-2.07;56.31;147160.69;1813755;79;21047;-57
2022/01/19 00:09:11;;;;;;;3.40;1.10;;;;;;;-2.05;56.85;147164.52;1778434;79;22348;-57
2022/01/19 00:11:40;;;;;;;10.30;3.30;;;;;;;-2.06;57.07;147163.27;1789870;80;20922;-56
2022/01/19 00:14:08;;;;;;;11.12;2.22;;;;;;;-2.05;56.90;147165.83;1746598;81;21063;-57
2022/01/19 00:16:36;;;;;;;5.15;2.15;;;;;;;-2.04;56.90;147168.39;1712352;80;21622;-57
2022/01/19 00:19:03;;;;;;;12.50;5.67;;;;;;;-2.02;56.98;147173.53;1770828;80;20982;-58
2022/01/19 00:21:32;;;;;;;5.87;1.98;;;;;;;-2.03;56.47;147170.97;1808185;79;21918;-57
2022/01/19 00:23:59;;;;;;;10.35;1.42;;;;;;;-2.05;56.39;147165.83;1814926;79;20854;-56
2022/01/19 00:26:26;;;;;;;11.68;1.35;;;;;;;-2.08;56.07;147158.12;1814531;79;21076;-59
2022/01/19 00:28:54;;;;;;;5.72;1.75;;;;;;;-2.10;55.65;147152.98;1814900;79;20993;-57
2022/01/19 00:31:21;;;;;;;2.02;1.15;;;;;;;-2.13;55.63;147143.98;1814673;78;21624;-57
2022/01/19 00:33:48;;;;;;;5.20;1.15;;;;;;;-2.17;55.87;147136.28;1814656;78;21082;-56
2022/01/19 00:36:15;;;;;;;3.40;1.00;;;;;;;-2.19;55.85;147129.84;1814065;79;21032;-57
2022/01/19 00:38:42;;;;;;;2.10;1.00;;;;;;;-2.24;55.45;147118.27;1814829;79;20966;-62
2022/01/19 00:41:10;;;;;;;2.25;1.07;;;;;;;-2.27;55.32;147110.56;1814883;78;21582;-62
2022/01/19 00:43:38;;;;;;;2.45;1.25;;;;;;;-2.28;55.72;147106.75;1814702;79;21060;-64
2022/01/19 00:46:04;;;;;;;3.95;1.27;;;;;;;-2.32;55.57;147099.03;1812864;78;21065;-63
2022/01/19 00:48:31;;;;;;;2.95;1.32;;;;;;;-2.33;55.48;147096.42;1809511;79;21047;-65
2022/01/19 00:50:58;;;;;;;7.28;1.30;;;;;;;-2.36;55.95;147088.72;1774440;80;21033;-67
2022/01/19 00:53:26;;;;;;;8.95;1.87;;;;;;;-2.38;56.08;147083.59;1750634;81;21176;-59
2022/01/19 00:55:53;;;;;;;6.75;1.70;;;;;;;-2.39;56.93;147081.03;1798297;78;21028;-57
2022/01/19 00:58:20;;;;;;;14.23;5.05;;;;;;;-2.39;57.42;147079.77;1799545;79;22384;-58
2022/01/19 01:00:47;;;;;;;3.87;1.50;;;;;;;-2.42;57.21;147073.31;1800004;78;21052;-58
2022/01/19 01:03:14;;;;;;;8.68;1.70;;;;;;;-2.47;56.96;147060.50;1760988;80;21045;-63
2022/01/19 01:05:42;;;;;;;1.82;1.07;;;;;;;-2.48;57.12;147057.94;1756230;80;20977;-63
2022/01/19 01:08:10;;;;;;;4.05;1.72;;;;;;;-2.55;56.66;147041.22;1729641;80;20990;-63
2022/01/19 01:10:45;;;;;;;11.23;1.70;;;;;;;-2.58;56.89;147033.53;1774927;80;21114;-63
2022/01/19 01:18:25;;;;;;;55.93;20.50;;;;;;;-2.59;57.82;147030.95;1797262;78;21044;-63
2022/01/19 01:20:55;;;;;;;83.03;29.95;;;;;;;-2.59;58.27;147030.95;1752563;80;21285;-62
2022/01/19 01:23:24;;;;;;;104.15;34.80;;;;;;;-2.63;58.78;147021.95;1685265;82;21733;-63
2022/01/19 01:25:53;;;;;;;70.43;25.63;;;;;;;-2.69;58.77;147006.56;1735818;80;20950;-62
2022/01/19 01:28:20;;;;;;;107.13;38.63;;;;;;;-2.76;59.16;146988.59;1732091;80;21132;-63
2022/01/19 01:30:50;;;;;;;58.42;20.30;;;;;;;-2.84;59.62;146969.33;1737624;82;20949;-63
2022/01/19 01:33:17;;;;;;;45.33;15.28;;;;;;;-2.91;59.87;146952.63;1688832;80;21493;-63
2022/01/19 01:35:44;;;;;;;142.22;50.03;;;;;;;-2.98;60.26;146934.67;1744823;80;21601;-63
2022/01/19 01:38:11;;;;;;;171.20;56.93;;;;;;;-3.03;60.62;146923.11;1720572;80;21064;-63
2022/01/19 01:40:38;;;;;;;151.42;50.33;;;;;;;-3.08;60.98;146908.97;1706821;81;22125;-63
2022/01/19 01:43:08;;;;;;;155.63;51.48;;;;;;;-3.16;61.29;146889.72;1708967;81;20989;-58
2022/01/19 01:45:39;;;;;;;110.65;37.90;;;;;;;-3.24;61.48;146870.45;1774842;80;21524;-63
2022/01/19 01:53:26;;;;;;;220.15;75.70;;;;;;;-3.40;62.07;146829.42;1798821;78;22035;-57
2022/01/19 01:56:04;;;;;;;224.50;83.07;;;;;;;-3.46;62.29;146815.30;1808478;77;21029;-56
2022/01/19 01:58:40;;;;;;;175.85;57.05;;;;;;;-3.52;62.06;146801.17;1770070;78;21059;-58
2022/01/19 02:01:22;;;;;;;152.77;49.90;;;;;;;-3.61;62.13;146779.34;1773486;78;21024;-55
2022/01/19 02:03:49;;;;;;;108.87;38.07;;;;;;;-3.67;62.02;146762.66;1771689;78;21008;-57
2022/01/19 02:06:29;;;;;;;165.27;57.03;;;;;;;-3.73;62.32;146748.59;1777257;78;21484;-56
2022/01/19 02:23:25;;;;;;;60.75;21.37;;;;;;;-4.09;64.68;146660.08;1749445;82;21020;-63
2022/01/19 02:25:58;;;;;;;13.57;4.23;;;;;;;-4.18;64.72;146636.97;1750503;81;20990;-63
2022/01/19 02:40:10;;;;;;;45.80;14.07;;;;;;;-4.42;65.14;146578.00;1719575;83;21064;-62
2022/01/19 02:42:09;;;;;;;122.10;40.10;;;;;;;-4.52;65.74;146552.38;1658362;85;21475;-62
2022/01/19 02:49:47;;;;;;;79.80;25.33;;;;;;;-4.64;66.57;146524.16;1800925;79;21017;-62
2022/01/19 02:52:14;;;;;;;147.97;48.43;;;;;;;-4.63;66.64;146526.72;1788035;79;21589;-62
2022/01/19 02:54:42;;;;;;;109.70;36.20;;;;;;;-4.64;66.67;146522.89;1803363;79;23174;-62
2022/01/19 02:57:11;;;;;;;290.20;98.27;;;;;;;-4.64;66.73;146524.16;1782158;79;21371;-63
2022/01/19 03:00:01;;;;;;;118.57;39.70;;;;;;;-4.66;66.78;146519.03;1738559;80;21070;-62
2022/01/19 03:10:24;;;;;;;123.03;39.07;;;;;;;-4.76;66.99;146494.66;1723708;80;21029;-62
2022/01/19 03:12:53;;;;;;;217.27;70.33;;;;;;;-4.80;67.28;146483.12;1776433;78;21040;-63
2022/01/19 03:15:20;;;;;;;193.17;65.67;;;;;;;-4.83;67.47;146475.44;1799050;78;21011;-62
2022/01/19 03:17:47;;;;;;;112.90;37.90;;;;;;;-4.89;67.60;146462.62;1782295;78;21017;-63
2022/01/19 03:20:16;;;;;;;120.83;39.40;;;;;;;-4.90;67.72;146460.06;1802421;79;21207;-61
2022/01/19 03:22:51;;;;;;;178.73;59.67;;;;;;;-4.94;67.98;146449.83;1780949;78;21029;-63
2022/01/19 03:25:13;;;;;;;106.57;35.77;;;;;;;-4.96;68.10;146444.70;1771679;79;21008;-63
2022/01/19 03:27:40;;;;;;;207.27;68.33;;;;;;;-5.00;68.22;146434.41;1799676;78;21634;-62
2022/01/19 03:30:09;;;;;;;140.37;47.37;;;;;;;-5.02;68.42;146429.28;1800795;79;21022;-62
2022/01/19 03:32:36;;;;;;;105.63;36.07;;;;;;;-5.06;68.55;146419.05;1800086;79;21811;-61
2022/01/19 03:35:05;;;;;;;124.67;40.13;;;;;;;-5.05;68.81;146421.61;1800384;78;20966;-62
2022/01/19 03:37:31;;;;;;;128.23;42.10;;;;;;;-5.07;68.98;146416.48;1788027;79;20930;-62
2022/01/19 03:39:58;;;;;;;117.63;40.87;;;;;;;-5.08;68.92;146413.94;1735211;81;21402;-63
2022/01/19 03:42:25;;;;;;;160.43;50.63;;;;;;;-5.09;68.86;146412.63;1779756;80;20984;-63
2022/01/19 03:44:52;;;;;;;84.07;27.23;;;;;;;-5.11;69.09;146406.25;1733886;81;21313;-63
2022/01/19 03:47:18;;;;;;;215.53;73.40;;;;;;;-5.13;69.23;146401.13;1769193;79;21461;-62
2022/01/19 03:49:45;;;;;;;97.13;33.83;;;;;;;-5.15;69.53;146396.00;1706413;82;21049;-63
2022/01/19 03:52:12;;;;;;;48.37;15.83;;;;;;;-5.18;69.71;146390.88;1715779;82;21046;-62
2022/01/19 03:54:42;;;;;;;35.07;12.10;;;;;;;-5.19;69.65;146388.33;1735611;80;21543;-63
2022/01/19 03:57:09;;;;;;;19.33;5.37;;;;;;;-5.23;69.58;146378.03;1730134;81;21120;-62
2022/01/19 03:59:37;;;;;;;27.27;5.70;;;;;;;-5.25;69.82;146372.91;1777632;80;21029;-63
2022/01/19 04:02:04;;;;;;;51.30;17.83;;;;;;;-5.30;69.92;146360.13;1766174;80;21088;-62
2022/01/19 04:04:38;;;;;;;167.53;55.47;;;;;;;-5.31;70.21;146357.56;1803548;79;21412;-62
2022/01/19 04:09:38;;;;;;;245.10;77.80;;;;;;;-5.39;70.36;146337.08;1771797;79;21106;-62
2022/01/19 04:12:07;;;;;;;209.27;70.00;;;;;;;-5.46;70.70;146321.67;1787134;78;20925;-62
2022/01/19 04:14:36;;;;;;;301.53;93.77;;;;;;;-5.53;70.92;146303.75;1746003;81;21631;-63
2022/01/19 04:17:06;;;;;;;150.80;47.53;;;;;;;-5.57;71.18;146293.52;1766307;80;21344;-63
2022/01/19 04:19:59;;;;;;;173.37;57.07;;;;;;;-5.58;71.28;146290.95;1766527;80;21016;-63
2022/01/19 04:22:27;;;;;;;103.63;38.77;;;;;;;-5.60;71.42;146285.84;1769451;80;21096;-63
2022/01/19 04:24:56;;;;;;;146.40;55.13;;;;;;;-5.63;71.58;146278.16;1810774;79;20989;-64
2022/01/19 04:30:06;;;;;;;242.10;82.77;;;;;;;-5.64;72.20;146275.55;1806511;78;20950;-62
2022/01/19 04:32:47;;;;;;;184.10;58.13;;;;;;;-5.63;72.55;146278.16;1806324;79;21012;-63
2022/01/19 04:35:10;;;;;;;95.90;35.97;;;;;;;-5.65;72.77;146274.30;1804559;79;21145;-63
2022/01/19 04:46:10;;;;;;;42.20;16.83;;;;;;;-5.63;73.49;146279.41;1788927;78;21063;-62
2022/01/19 04:48:58;;;;;;;99.87;35.60;;;;;;;-5.64;73.53;146276.84;1769018;80;21118;-63
2022/01/19 05:02:21;;;;;;;100.60;36.33;;;;;;;-5.64;73.84;146275.55;1761969;79;21495;-63
2022/01/19 05:07:17;;;;;;;191.17;74.57;;;;;;;-5.66;73.64;146271.73;1744444;81;20948;-63
2022/01/19 05:14:51;;;;;;;74.47;30.37;;;;;;;-5.68;73.62;146265.31;1781531;79;21108;-63
2022/01/19 05:17:18;;;;;;;108.20;42.97;;;;;;;-5.68;73.68;146265.31;1713119;81;21088;-63
2022/01/19 05:19:44;;;;;;;120.73;45.97;;;;;;;-5.67;73.56;146267.87;1733881;82;21049;-64
2022/01/19 05:22:12;;;;;;;155.23;61.67;;;;;;;-5.67;73.65;146267.87;1779893;79;20993;-63
2022/01/19 05:24:51;;;;;;;338.93;104.03;;;;;;;-5.67;73.57;146267.87;1790221;79;20954;-63
2022/01/19 05:27:21;;;;;;;255.37;94.10;;;;;;;-5.65;73.62;146274.30;1764614;80;21286;-63
2022/01/19 05:29:49;;;;;;;136.83;53.23;;;;;;;-5.64;73.54;146275.55;1756048;79;21495;-62
2022/01/19 05:32:16;;;;;;;50.37;22.50;;;;;;;-5.64;73.51;146275.55;1792080;79;20914;-63
2022/01/19 05:34:43;;;;;;;88.23;38.27;;;;;;;-5.65;73.61;146272.98;1787441;79;21083;-62
2022/01/19 05:37:13;;;;;;;68.73;28.03;;;;;;;-5.65;73.64;146272.98;1742240;81;20883;-63
2022/01/19 05:39:44;;;;;;;68.33;28.90;;;;;;;-5.65;73.67;146272.98;1789115;79;21123;-62
2022/01/19 05:42:17;;;;;;;77.47;30.10;;;;;;;-5.63;73.65;146278.16;1786566;79;20986;-63
2022/01/19 05:44:43;;;;;;;138.83;54.67;;;;;;;-5.63;73.50;146279.41;1779414;79;21025;-63
2022/01/19 05:47:12;;;;;;;70.90;31.17;;;;;;;-5.63;73.46;146278.16;1762163;79;21009;-62
2022/01/19 05:49:39;;;;;;;105.10;44.90;;;;;;;-5.63;73.38;146278.16;1794108;79;20949;-63
2022/01/19 05:52:06;;;;;;;165.90;60.47;;;;;;;-5.61;73.30;146283.28;1717101;82;21124;-63
2022/01/19 05:54:33;;;;;;;212.17;79.77;;;;;;;-5.59;73.28;146287.09;1729559;80;21541;-64
2022/01/19 05:57:00;;;;;;;196.23;74.13;;;;;;;-5.57;73.28;146293.52;1812441;78;20936;-62
2022/01/19 05:59:32;;;;;;;133.80;49.60;;;;;;;-5.55;73.16;146297.33;1804350;77;21055;-62
2022/01/19 06:01:59;;;;;;;98.67;37.17;;;;;;;-5.54;72.94;146301.19;1725210;81;20914;-64
2022/01/19 06:04:26;;;;;;;67.17;24.97;;;;;;;-5.48;73.06;146315.30;1808806;78;21115;-63
2022/01/19 06:07:11;;;;;;;12.07;4.70;;;;;;;-5.40;73.03;146334.52;1795575;77;21093;-63
2022/01/19 06:12:12;;;;;;;18.70;6.77;;;;;;;-5.21;72.54;146383.16;1760177;79;20922;-63
2022/01/19 06:14:41;;;;;;;16.73;4.30;;;;;;;-5.10;72.07;146410.06;1772300;77;21013;-62
2022/01/19 06:17:10;;;;;;;9.37;2.77;;;;;;;-5.04;71.81;146424.17;1796150;78;21121;-62
2022/01/19 06:19:38;;;;;;;9.23;2.93;;;;;;;-4.94;71.54;146448.52;1780501;79;21031;-63
2022/01/19 06:22:06;;;;;;;7.63;2.87;;;;;;;-4.85;71.29;146470.31;1769166;80;20962;-62
2022/01/19 06:24:34;;;;;;;10.73;2.80;;;;;;;-4.78;70.91;146489.55;1805303;79;21049;-63
2022/01/19 06:27:03;;;;;;;20.93;4.60;;;;;;;-4.72;70.78;146503.66;1808700;77;21324;-62
2022/01/19 06:29:31;;;;;;;49.63;19.23;;;;;;;-4.63;70.54;146526.72;1807470;79;21025;-62
2022/01/19 06:32:00;;;;;;;74.93;30.17;;;;;;;-4.57;69.87;146540.83;1808131;79;20967;-63
2022/01/19 06:34:27;;;;;;;113.90;41.13;;;;;;;-4.56;69.76;146543.39;1807536;79;21083;-63
2022/01/19 06:36:58;;;;;;;134.67;50.10;;;;;;;-4.55;69.64;146544.64;1779222;79;20961;-64
2022/01/19 06:39:30;;;;;;;90.63;34.23;;;;;;;-4.54;69.43;146547.20;1808451;78;21039;-64
2022/01/19 06:42:05;;;;;;;136.43;50.75;;;;;;;-4.54;69.25;146547.20;1804497;77;21138;-64
2022/01/19 06:44:32;;;;;;;70.40;27.57;;;;;;;-4.53;69.15;146549.77;1799266;79;21504;-63
2022/01/19 06:46:59;;;;;;;58.03;22.37;;;;;;;-4.49;69.39;146560.06;1798878;79;21007;-63
2022/01/19 06:49:25;;;;;;;136.30;48.00;;;;;;;-4.40;69.32;146583.11;1800251;79;22209;-63
2022/01/19 06:51:52;;;;;;;97.60;37.47;;;;;;;-4.35;68.87;146594.67;1802525;78;21470;-64
2022/01/19 06:54:18;;;;;;;65.50;24.67;;;;;;;-4.29;68.87;146608.78;1802583;79;21108;-64
2022/01/19 06:56:47;;;;;;;69.13;27.03;;;;;;;-4.26;68.29;146616.47;1735266;81;21065;-64
2022/01/19 06:59:31;;;;;;;98.10;38.90;;;;;;;-4.21;68.13;146629.28;1733622;81;21065;-59
2022/01/19 07:02:00;;;;;;;36.57;13.30;;;;;;;-4.18;68.01;146636.97;1757951;80;21037;-58
2022/01/19 07:04:49;;;;;;;144.60;55.63;;;;;;;-4.12;68.07;146652.34;1753399;80;21055;-58
2022/01/19 07:07:16;;;;;;;141.37;53.48;;;;;;;-4.06;67.52;146667.78;1733309;82;21109;-62
2022/01/19 07:09:49;;;;;;;67.87;22.93;;;;;;;-4.05;66.99;146670.34;1724084;81;21104;-63
2022/01/19 07:12:16;;;;;;;41.60;15.67;;;;;;;-4.05;66.97;146670.34;1759032;79;21079;-64
2022/01/19 07:14:43;;;;;;;48.83;15.98;;;;;;;-4.01;66.91;146679.28;1755685;79;22228;-63
2022/01/19 07:17:10;;;;;;;90.43;28.80;;;;;;;-4.01;66.56;146678.03;1767037;79;21049;-63
2022/01/19 07:19:37;;;;;;;39.13;9.48;;;;;;;-4.05;66.55;146670.34;1753078;80;21823;-64
2022/01/19 07:22:04;;;;;;;135.37;40.03;;;;;;;-4.07;66.90;146665.22;1757702;79;21727;-65
2022/01/19 07:24:32;;;;;;;85.77;23.80;;;;;;;-4.08;66.56;146662.64;1794698;78;20990;-63
2022/01/19 07:27:01;;;;;;;325.75;95.87;;;;;;;-4.11;66.45;146654.91;1791313;78;20976;-62
2022/01/19 07:29:30;;;;;;;93.37;31.02;;;;;;;-4.09;66.54;146660.08;1789772;77;21044;-62
2022/01/19 07:31:59;;;;;;;24.10;10.47;;;;;;;-4.06;66.32;146667.78;1791353;78;21815;-63
2022/01/19 07:34:26;;;;;;;79.37;34.23;;;;;;;-4.05;66.12;146670.34;1787556;77;21754;-64
2022/01/19 07:36:54;;;;;;;81.05;29.98;;;;;;;-4.03;66.25;146675.47;1790193;77;21491;-58
2022/01/19 07:39:22;;;;;;;41.53;16.17;;;;;;;-3.96;66.18;146690.84;1789204;77;21454;-58
2022/01/19 07:41:51;;;;;;;60.90;22.13;;;;;;;-3.96;65.92;146692.14;1768004;79;21136;-57
2022/01/19 07:44:19;;;;;;;87.20;29.90;;;;;;;-3.90;66.28;146706.22;1787837;79;21911;-58
2022/01/19 07:47:06;;;;;;;78.70;28.20;;;;;;;-3.89;65.35;146708.78;1786702;78;21068;-58
2022/01/19 07:49:38;;;;;;;124.83;43.33;;;;;;;-3.86;65.92;146715.22;1743133;80;21088;-57
2022/01/19 07:52:21;;;;;;;38.48;12.90;;;;;;;-3.79;65.98;146734.47;1779106;79;21479;-57
2022/01/19 07:54:56;;;;;;;34.63;11.50;;;;;;;-3.75;65.60;146744.72;1744636;80;21336;-58
2022/01/19 07:57:24;;;;;;;106.70;36.77;;;;;;;-3.76;64.71;146742.16;1687766;81;21616;-58
2022/01/19 07:59:59;;;;;;;165.23;58.60;;;;;;;-3.72;65.21;146749.84;1745131;80;21504;-57
2022/01/19 08:02:32;;;;;;;32.97;11.17;;;;;;;-3.66;65.42;146765.22;1733968;80;21541;-57
2022/01/19 08:05:16;;;;;;;114.12;42.95;;;;;;;-3.59;64.43;146783.22;1776194;78;21150;-57
2022/01/19 08:07:44;;;;;;;158.18;63.50;;;;;;;-3.57;64.29;146788.34;1744964;78;21150;-59
2022/01/19 08:10:11;;;;;;;9.80;2.80;;;;;;;-3.58;64.05;146784.47;1708024;81;21477;-58
2022/01/19 08:12:38;;;;;;;37.38;13.78;;;;;;;-3.61;62.92;146778.09;1736373;80;21506;-58
2022/01/19 08:15:07;;;;;;;89.90;33.30;;;;;;;-3.60;63.40;146780.66;1767407;79;21140;-59
2022/01/19 08:17:36;;;;;;;16.73;7.28;;;;;;;-3.58;63.30;146785.78;1753169;80;20996;-58
2022/01/19 08:20:05;;;;;;;117.47;44.00;;;;;;;-3.55;63.50;146793.47;1748806;79;21086;-58
2022/01/19 08:22:32;;;;;;;31.00;11.67;;;;;;;-3.51;62.88;146803.73;1777349;79;21109;-59
2022/01/19 08:25:13;;;;;;;4.35;1.75;;;;;;;-3.46;62.69;146815.30;1774786;79;21019;-59
2022/01/19 08:27:41;;;;;;;8.97;1.77;;;;;;;-3.45;62.06;146819.12;1774888;79;21341;-57
2022/01/19 08:30:11;;;;;;;9.83;4.13;;;;;;;-3.42;61.67;146824.30;1766456;79;20952;-58
2022/01/19 08:32:39;;;;;;;13.62;3.72;;;;;;;-3.42;61.25;146825.56;1776795;79;22608;-57
2022/01/19 08:35:10;;;;;;;7.95;3.37;;;;;;;-3.40;61.29;146829.42;1773691;79;21106;-57
2022/01/19 08:37:39;;;;;;;3.60;1.00;;;;;;;-3.41;60.86;146826.86;1733085;80;21052;-59
2022/01/19 08:40:10;;;;;;;5.37;1.73;;;;;;;-3.41;60.36;146828.13;1777391;79;33208;-58
2022/01/19 08:42:39;;;;;;;7.87;2.33;;;;;;;-3.36;60.59;146839.67;1755764;80;21107;-58
2022/01/19 08:45:08;;;;;;;9.40;1.60;;;;;;;-3.29;60.73;146857.63;1761016;80;21063;-64
2022/01/19 08:47:38;;;;;;;5.75;1.32;;;;;;;-3.21;59.92;146876.89;1755413;80;21161;-63
2022/01/19 08:50:15;;;;;;;4.20;1.43;;;;;;;-3.19;59.20;146883.33;1752903;80;21067;-64
2022/01/19 08:52:51;;;;;;;3.72;1.62;;;;;;;-3.18;59.07;146884.59;1751857;79;21064;-64
2022/01/19 08:55:26;;;;;;;39.35;15.35;;;;;;;-3.14;59.14;146893.58;1739441;80;21047;-64
2022/01/19 08:57:52;;;;;;;121.57;45.55;;;;;;;-3.08;59.55;146908.97;1804350;77;21138;-64
2022/01/19 09:00:20;;;;;;;15.58;6.20;;;;;;;-3.03;59.05;146921.80;1805582;77;21487;-58
2022/01/19 09:02:47;;;;;;;158.15;58.15;;;;;;;-2.94;59.37;146944.94;1806374;77;21516;-64
2022/01/19 09:05:15;;;;;;;48.17;16.57;;;;;;;-2.82;59.40;146973.16;1743543;80;21048;-65
2022/01/19 09:10:09;;;;;;;6.63;2.27;;;;;;;-2.61;57.49;147025.83;1832769;77;22580;-63
2022/01/19 09:12:36;;;;;;;200.43;65.15;;;;;;;-2.64;56.70;147019.38;1807395;78;20973;-64
2022/01/19 09:15:05;;;;;;;58.80;19.65;;;;;;;-2.61;56.27;147027.09;1804296;78;21111;-65
2022/01/19 09:17:32;;;;;;;116.60;40.25;;;;;;;-2.60;56.02;147029.66;1806184;78;21038;-64
2022/01/19 09:19:59;;;;;;;143.13;49.50;;;;;;;-2.54;56.07;147042.47;1804783;78;21008;-65
2022/01/19 09:22:25;;;;;;;337.30;117.55;;;;;;;-2.48;55.22;147059.19;1802397;78;20932;-64
2022/01/19 09:24:52;;;;;;;277.57;98.15;;;;;;;-2.40;55.45;147077.20;1799783;78;21028;-64
2022/01/19 09:27:19;;;;;;;87.85;31.33;;;;;;;-2.32;55.23;147097.73;1798986;78;21158;-65
2022/01/19 09:29:46;;;;;;;52.90;18.32;;;;;;;-2.27;54.53;147109.31;1799402;78;21023;-65
2022/01/19 09:32:13;;;;;;;10.08;4.17;;;;;;;-2.23;54.36;147119.56;1802087;78;21045;-66
2022/01/19 09:34:47;;;;;;;47.83;16.97;;;;;;;-2.20;53.59;147128.58;1801487;78;20956;-65
2022/01/19 09:37:12;;;;;;;18.45;7.12;;;;;;;-2.12;53.36;147147.81;1802664;78;21083;-64
2022/01/19 09:39:38;;;;;;;41.70;15.45;;;;;;;-2.03;53.07;147170.97;1799643;78;21822;-66
2022/01/19 09:42:06;;;;;;;8.05;2.15;;;;;;;-1.98;52.57;147181.23;1804265;78;21116;-65
2022/01/19 09:44:33;;;;;;;30.82;11.68;;;;;;;-1.99;52.12;147178.66;1802510;78;20920;-67
2022/01/19 09:47:00;;;;;;;59.33;20.80;;;;;;;-1.98;52.17;147181.23;1799887;78;21576;-65
2022/01/19 09:49:27;;;;;;;120.53;46.77;;;;;;;-1.96;52.04;147187.67;1806680;78;21041;-67
2022/01/19 09:51:55;;;;;;;71.33;26.40;;;;;;;-1.88;52.31;147206.91;1799754;78;21124;-66
2022/01/19 09:54:26;;;;;;;21.48;7.83;;;;;;;-1.78;52.06;147232.62;1802688;78;21040;-65
2022/01/19 09:56:54;;;;;;;26.45;8.95;;;;;;;-1.69;51.08;147254.48;1798152;78;20930;-66
2022/01/19 09:59:21;;;;;;;74.27;27.52;;;;;;;-1.64;50.96;147266.06;1801818;78;21376;-64
2022/01/19 10:02:02;;;;;;;140.47;56.50;;;;;;;-1.62;51.14;147272.47;1799176;78;21095;-64
2022/01/19 10:04:35;;;;;;;101.02;35.45;;;;;;;-1.54;51.37;147291.75;1803654;78;21860;-64
2022/01/19 10:07:18;;;;;;;10.72;4.37;;;;;;;-1.43;50.08;147317.48;1805775;78;21545;-65
2022/01/19 10:09:59;;;;;;;63.33;24.20;;;;;;;-1.41;49.82;147322.63;1791708;78;21048;-65
2022/01/19 10:18:33;;;;;;;10.28;1.98;;;;;;;-1.27;49.68;147358.58;1786815;79;21340;-60
2022/01/19 10:21:15;;;;;;;9.60;3.00;;;;;;;-1.24;49.50;147366.28;1740006;80;21072;-59
2022/01/19 10:23:48;;;;;;;10.65;4.45;;;;;;;-1.17;49.10;147384.31;1783486;79;21114;-58
2022/01/19 10:26:25;;;;;;;48.05;18.73;;;;;;;-1.05;48.93;147412.58;1789162;79;21054;-58
2022/01/19 10:29:07;;;;;;;18.62;7.15;;;;;;;-0.97;49.04;147433.19;1784017;79;21115;-58
2022/01/19 10:31:37;;;;;;;21.85;7.20;;;;;;;-0.84;49.31;147465.34;1785021;79;21130;-58
2022/01/19 10:34:21;;;;;;;75.10;30.05;;;;;;;-0.69;49.08;147502.63;1784840;79;21581;-58
2022/01/19 10:36:53;;;;;;;49.13;22.43;;;;;;;-0.59;48.97;147527.06;1785402;78;21888;-59
2022/01/19 10:39:21;;;;;;;81.05;29.87;;;;;;;-0.48;48.81;147554.08;1779728;79;21589;-59
2022/01/19 10:42:02;;;;;;;11.95;3.70;;;;;;;-0.41;47.59;147572.08;1783562;79;21341;-59
2022/01/19 10:44:35;;;;;;;8.43;3.58;;;;;;;-0.36;46.82;147584.94;1775720;79;22180;-66
2022/01/19 10:47:04;;;;;;;6.03;2.37;;;;;;;-0.27;46.11;147606.81;1782383;79;21043;-64
2022/01/19 10:49:53;;;;;;;24.60;6.03;;;;;;;-0.21;45.19;147620.97;1786187;79;20961;-65
2022/01/19 10:52:36;;;;;;;115.82;42.05;;;;;;;-0.22;44.87;147619.72;1784388;78;22219;-65
2022/01/19 10:55:07;;;;;;;50.98;19.65;;;;;;;-0.27;44.30;147605.55;1777458;79;21057;-64
2022/01/19 10:57:37;;;;;;;235.23;82.25;;;;;;;-0.31;44.42;147596.53;1788825;79;21277;-67
2022/01/19 11:00:10;;;;;;;94.25;38.30;;;;;;;-0.32;43.78;147595.27;1779398;79;21067;-66
2022/01/19 11:02:39;;;;;;;75.75;29.55;;;;;;;-0.28;44.10;147604.23;1775763;79;21127;-66
2022/01/19 11:05:06;;;;;;;111.68;46.40;;;;;;;-0.24;43.69;147613.27;1776740;78;21272;-68
2022/01/19 11:07:33;;;;;;;43.08;19.02;;;;;;;-0.23;43.45;147615.83;1786331;79;21068;-66
2022/01/19 11:10:08;;;;;;;109.00;41.90;;;;;;;-0.25;42.45;147610.69;1796174;78;21561;-65
2022/01/19 11:12:32;;;;;;;72.87;26.57;;;;;;;-0.30;42.21;147599.09;1801772;78;20936;-66
2022/01/19 11:15:07;;;;;;;44.38;15.85;;;;;;;-0.30;42.21;147600.41;1804606;78;21071;-65
2022/01/19 11:17:51;;;;;;;91.40;35.95;;;;;;;-0.27;41.71;147606.81;1776520;78;21533;-65
2022/01/19 11:20:32;;;;;;;25.20;10.05;;;;;;;-0.21;41.80;147620.97;1773231;78;21061;-65
2022/01/19 11:23:29;;;;;;;10.63;3.95;;;;;;;-0.14;41.39;147638.97;1799042;78;21484;-66
2022/01/19 11:26:09;;;;;;;167.90;65.17;;;;;;;-0.08;41.92;147654.45;1776528;77;21493;-66
2022/01/19 11:28:47;;;;;;;89.52;37.70;;;;;;;-0.03;41.83;147667.31;1770992;78;21062;-66
2022/01/19 11:31:31;;;;;;;66.42;27.87;;;;;;;0.03;41.73;147681.47;1803883;78;21052;-66
2022/01/19 11:33:58;;;;;;;28.85;11.50;;;;;;;0.10;41.90;147698.17;1801635;78;21111;-66
2022/01/19 11:36:30;;;;;;;29.35;10.32;;;;;;;0.18;42.08;147717.48;1800489;78;21114;-66
2022/01/19 11:39:17;;;;;;;16.02;6.67;;;;;;;0.22;41.79;147729.08;1802702;78;21101;-65
2022/01/19 11:41:55;;;;;;;17.90;7.70;;;;;;;0.29;40.40;147745.83;1800380;78;21118;-65
2022/01/19 11:44:37;;;;;;;36.93;11.65;;;;;;;0.33;40.08;147754.81;1804175;77;21015;-66
2022/01/19 11:47:17;;;;;;;34.10;13.93;;;;;;;0.33;41.18;147754.81;1801356;78;21424;-67
2022/01/19 11:49:53;;;;;;;27.10;8.33;;;;;;;0.39;41.60;147771.55;1799594;78;22230;-64
2022/01/19 11:52:25;;;;;;;90.85;28.60;;;;;;;0.47;40.19;147790.87;1803641;78;21563;-65
2022/01/19 11:54:55;;;;;;;77.82;32.63;;;;;;;0.47;39.35;147790.87;1802128;78;21463;-65
2022/01/19 11:57:28;;;;;;;65.70;30.92;;;;;;;0.48;38.89;147792.19;1793743;79;21115;-65
2022/01/19 12:00:09;;;;;;;6.92;2.87;;;;;;;0.45;38.64;147785.72;1802505;78;21064;-66
2022/01/19 12:02:46;;;;;;;41.90;15.40;;;;;;;0.41;38.15;147775.44;1800852;78;21128;-65
2022/01/19 12:05:22;;;;;;;5.57;2.43;;;;;;;0.40;38.52;147774.13;1802172;77;21111;-58
2022/01/19 12:07:56;;;;;;;3.60;0.90;;;;;;;0.40;38.63;147772.86;1804055;78;21114;-58
2022/01/19 12:10:45;;;;;;;3.77;0.98;;;;;;;0.41;38.85;147775.44;1731322;81;21000;-59
2022/01/19 12:19:14;;;;;;;208.70;76.50;;;;;;;0.50;40.22;147798.59;1729262;81;21101;-58
2022/01/19 12:21:50;;;;;;;81.57;31.62;;;;;;;0.56;40.12;147814.08;1753397;80;21084;-58
2022/01/19 12:24:24;;;;;;;36.38;13.75;;;;;;;0.61;40.40;147824.37;1740429;80;21575;-59
2022/01/19 12:27:19;;;;;;;55.83;20.00;;;;;;;0.68;40.32;147842.38;1743176;81;21064;-58
2022/01/19 12:29:53;;;;;;;92.95;31.35;;;;;;;0.73;40.39;147853.98;1740340;81;21841;-59
2022/01/19 12:32:28;;;;;;;85.75;27.87;;;;;;;0.76;39.63;147862.97;1746487;81;21513;-60
2022/01/19 12:35:07;;;;;;;148.13;47.05;;;;;;;0.76;39.34;147861.70;1743368;80;21127;-59
2022/01/19 12:37:55;;;;;;;56.92;24.07;;;;;;;0.76;39.44;147862.97;1745406;81;21051;-59
2022/01/19 12:40:31;;;;;;;23.47;8.98;;;;;;;0.75;38.97;147859.12;1745253;81;21141;-59
2022/01/19 12:43:01;;;;;;;16.95;7.35;;;;;;;0.75;39.26;147860.39;1747105;80;21158;-58
2022/01/19 12:45:32;;;;;;;5.83;2.92;;;;;;;0.81;39.78;147875.88;1740856;81;21222;-60
2022/01/19 12:48:05;;;;;;;34.88;13.72;;;;;;;0.87;39.82;147888.75;1744309;81;21458;-63
2022/01/19 12:50:39;;;;;;;40.75;14.90;;;;;;;0.91;40.05;147900.34;1720160;81;21099;-58
2022/01/19 12:53:20;;;;;;;78.23;34.40;;;;;;;0.95;39.78;147909.33;1741741;81;21162;-59
2022/01/19 12:56:02;;;;;;;65.28;29.55;;;;;;;0.95;39.72;147910.64;1741995;80;22635;-59
2022/01/19 12:58:37;;;;;;;90.87;38.45;;;;;;;0.96;39.68;147911.91;1740445;80;21223;-58
2022/01/19 13:01:09;;;;;;;39.60;15.83;;;;;;;0.97;38.94;147914.48;1740683;80;21025;-59
2022/01/19 13:03:45;;;;;;;39.70;14.35;;;;;;;0.96;39.10;147913.22;1742997;80;21040;-59
2022/01/19 13:06:13;;;;;;;56.58;22.95;;;;;;;0.95;39.00;147909.33;1739909;81;21054;-59
2022/01/19 13:08:59;;;;;;;35.85;13.45;;;;;;;0.94;39.33;147908.06;1741100;80;21180;-58